Guthrie, Indiana
Current Conditions -  °F | °C
As of 7:53 AM on Monday 20 Oct 2014 (Local Time) from KBMG Reporting Station
Overcast Overcast  
Wind Chill: 50°   Ceiling: 11000
Heat Index: 50°   Visibility: 10mi
Dew Point: 45°   Wind: 6mph
Humidity: 83%   Direction: 200°SSW
Pressure: 29.97"   Gusts: NA
Location:  38.8737°N, 86.4563°W
Report Text: KBMG 201153Z AUTO 20005KT 10SM OVC110 10/07 A2997 RMK AO2 SLP150 T01000072 10100 20083 56009
Loading
Personal Weather Stations






























Interactive Weather Map
Tropical Storm Tracking
New forecast layout! Learn more

10-Day Weather Forecast

Advertisements
Track Severe Weather on mobile